sensor_id;sensor_type;location;lat;lon;timestamp;temperature;humidity
39503;DHT22;26970;49.900;10.774;2023-12-20T00:01:37;4.30;99.90
39503;DHT22;26970;49.900;10.774;2023-12-20T00:04:02;4.30;99.90
39503;DHT22;26970;49.900;10.774;2023-12-20T00:06:29;4.40;99.90
39503;DHT22;26970;49.900;10.774;2023-12-20T00:08:55;4.30;99.90
39503;DHT22;26970;49.900;10.774;2023-12-20T00:11:20;4.40;99.90
39503;DHT22;26970;49.900;10.774;2023-12-20T00:13:46;4.30;99.90
39503;DHT22;26970;49.900;10.774;2023-12-20T00:16:12;4.30;99.90
39503;DHT22;26970;49.900;10.774;2023-12-20T00:18:37;4.30;99.90
39503;DHT22;26970;49.900;10.774;2023-12-20T00:21:03;4.30;99.90
39503;DHT22;26970;49.900;10.774;2023-12-20T00:23:29;4.30;99.90
39503;DHT22;26970;49.900;10.774;2023-12-20T00:25:55;4.30;99.90
39503;DHT22;26970;49.900;10.774;2023-12-20T00:28:21;4.30;99.90
39503;DHT22;26970;49.900;10.774;2023-12-20T00:30:47;4.30;99.90
39503;DHT22;26970;49.900;10.774;2023-12-20T00:33:13;4.30;99.90
39503;DHT22;26970;49.900;10.774;2023-12-20T00:35:38;4.30;99.90
39503;DHT22;26970;49.900;10.774;2023-12-20T00:38:04;4.30;99.90
39503;DHT22;26970;49.900;10.774;2023-12-20T00:40:30;4.30;99.90
39503;DHT22;26970;49.900;10.774;2023-12-20T00:42:56;4.30;99.90
39503;DHT22;26970;49.900;10.774;2023-12-20T00:45:21;4.30;99.90
39503;DHT22;26970;49.900;10.774;2023-12-20T00:47:47;4.30;99.90
39503;DHT22;26970;49.900;10.774;2023-12-20T00:50:13;4.30;99.90
39503;DHT22;26970;49.900;10.774;2023-12-20T00:52:38;4.30;99.90
39503;DHT22;26970;49.900;10.774;2023-12-20T00:55:04;4.30;99.90
39503;DHT22;26970;49.900;10.774;2023-12-20T00:57:30;4.30;99.90
39503;DHT22;26970;49.900;10.774;2023-12-20T00:59:56;4.20;99.90
39503;DHT22;26970;49.900;10.774;2023-12-20T01:02:22;4.30;99.90
39503;DHT22;26970;49.900;10.774;2023-12-20T01:04:47;4.30;99.90
39503;DHT22;26970;49.900;10.774;2023-12-20T01:07:13;4.30;99.90
39503;DHT22;26970;49.900;10.774;2023-12-20T01:09:38;4.30;99.90
39503;DHT22;26970;49.900;10.774;2023-12-20T01:12:04;4.30;99.90
39503;DHT22;26970;49.900;10.774;2023-12-20T01:14:30;4.30;99.90
39503;DHT22;26970;49.900;10.774;2023-12-20T01:16:55;4.30;99.90
39503;DHT22;26970;49.900;10.774;2023-12-20T01:19:21;4.30;99.90
39503;DHT22;26970;49.900;10.774;2023-12-20T01:21:47;4.30;99.90
39503;DHT22;26970;49.900;10.774;2023-12-20T01:24:12;4.20;99.90
39503;DHT22;26970;49.900;10.774;2023-12-20T01:26:38;4.30;99.90
39503;DHT22;26970;49.900;10.774;2023-12-20T01:29:03;4.30;99.90
39503;DHT22;26970;49.900;10.774;2023-12-20T01:31:29;4.30;99.90
39503;DHT22;26970;49.900;10.774;2023-12-20T01:33:55;4.20;99.90
39503;DHT22;26970;49.900;10.774;2023-12-20T01:36:21;4.20;99.90
39503;DHT22;26970;49.900;10.774;2023-12-20T01:38:46;4.30;99.90
39503;DHT22;26970;49.900;10.774;2023-12-20T01:41:12;4.30;99.90
39503;DHT22;26970;49.900;10.774;2023-12-20T01:43:37;4.30;99.90
39503;DHT22;26970;49.900;10.774;2023-12-20T01:46:03;4.30;99.90
39503;DHT22;26970;49.900;10.774;2023-12-20T01:48:29;4.20;99.90
39503;DHT22;26970;49.900;10.774;2023-12-20T01:50:58;4.30;99.90
39503;DHT22;26970;49.900;10.774;2023-12-20T01:53:25;4.20;99.90
39503;DHT22;26970;49.900;10.774;2023-12-20T01:55:52;4.20;99.90
39503;DHT22;26970;49.900;10.774;2023-12-20T01:58:19;4.30;99.90
39503;DHT22;26970;49.900;10.774;2023-12-20T02:00:45;4.20;99.90
39503;DHT22;26970;49.900;10.774;2023-12-20T02:03:18;4.30;99.90
39503;DHT22;26970;49.900;10.774;2023-12-20T02:05:44;4.20;99.90
39503;DHT22;26970;49.900;10.774;2023-12-20T02:08:11;4.20;99.90
39503;DHT22;26970;49.900;10.774;2023-12-20T02:10:36;4.20;99.90
39503;DHT22;26970;49.900;10.774;2023-12-20T02:13:03;4.20;99.90
39503;DHT22;26970;49.900;10.774;2023-12-20T02:15:29;4.10;99.90
39503;DHT22;26970;49.900;10.774;2023-12-20T02:17:55;4.10;99.90
39503;DHT22;26970;49.900;10.774;2023-12-20T02:20:21;4.20;99.90
39503;DHT22;26970;49.900;10.774;2023-12-20T02:22:46;4.20;99.90
39503;DHT22;26970;49.900;10.774;2023-12-20T02:25:12;4.20;99.90
39503;DHT22;26970;49.900;10.774;2023-12-20T02:27:38;4.20;99.90
39503;DHT22;26970;49.900;10.774;2023-12-20T02:30:05;4.20;99.90
39503;DHT22;26970;49.900;10.774;2023-12-20T02:32:31;4.10;99.90
39503;DHT22;26970;49.900;10.774;2023-12-20T02:34:57;4.10;99.90
39503;DHT22;26970;49.900;10.774;2023-12-20T02:37:23;4.20;99.90
39503;DHT22;26970;49.900;10.774;2023-12-20T02:39:49;4.20;99.90
39503;DHT22;26970;49.900;10.774;2023-12-20T02:42:14;4.10;99.90
39503;DHT22;26970;49.900;10.774;2023-12-20T02:44:40;4.10;99.90
39503;DHT22;26970;49.900;10.774;2023-12-20T02:47:06;4.10;99.90
39503;DHT22;26970;49.900;10.774;2023-12-20T02:49:31;4.10;99.90
39503;DHT22;26970;49.900;10.774;2023-12-20T02:51:57;4.10;99.90
39503;DHT22;26970;49.900;10.774;2023-12-20T02:54:22;4.10;99.90
39503;DHT22;26970;49.900;10.774;2023-12-20T02:56:48;4.10;99.90
39503;DHT22;26970;49.900;10.774;2023-12-20T02:59:14;4.10;99.90
39503;DHT22;26970;49.900;10.774;2023-12-20T03:01:43;4.10;99.90
39503;DHT22;26970;49.900;10.774;2023-12-20T03:04:09;4.00;99.90
39503;DHT22;26970;49.900;10.774;2023-12-20T03:06:35;4.00;99.90
39503;DHT22;26970;49.900;10.774;2023-12-20T03:09:00;4.00;99.90
39503;DHT22;26970;49.900;10.774;2023-12-20T03:11:29;4.00;99.90
39503;DHT22;26970;49.900;10.774;2023-12-20T03:13:55;4.00;99.90
39503;DHT22;26970;49.900;10.774;2023-12-20T03:16:21;3.90;99.90
39503;DHT22;26970;49.900;10.774;2023-12-20T03:18:46;4.00;99.90
39503;DHT22;26970;49.900;10.774;2023-12-20T03:21:12;4.00;99.90
39503;DHT22;26970;49.900;10.774;2023-12-20T03:23:38;3.90;99.90
39503;DHT22;26970;49.900;10.774;2023-12-20T03:26:07;3.90;99.90
39503;DHT22;26970;49.900;10.774;2023-12-20T03:28:33;3.90;99.90
39503;DHT22;26970;49.900;10.774;2023-12-20T03:30:59;3.90;99.90
39503;DHT22;26970;49.900;10.774;2023-12-20T03:33:24;3.90;99.90
39503;DHT22;26970;49.900;10.774;2023-12-20T03:35:50;3.90;99.90
39503;DHT22;26970;49.900;10.774;2023-12-20T03:38:16;3.90;99.90
39503;DHT22;26970;49.900;10.774;2023-12-20T03:40:41;3.80;99.90
39503;DHT22;26970;49.900;10.774;2023-12-20T03:43:07;3.80;99.90
39503;DHT22;26970;49.900;10.774;2023-12-20T03:45:33;3.80;99.90
39503;DHT22;26970;49.900;10.774;2023-12-20T03:47:59;3.70;99.90
39503;DHT22;26970;49.900;10.774;2023-12-20T03:50:25;3.80;99.90
39503;DHT22;26970;49.900;10.774;2023-12-20T03:52:51;3.70;99.90
39503;DHT22;26970;49.900;10.774;2023-12-20T03:55:17;3.60;99.90
39503;DHT22;26970;49.900;10.774;2023-12-20T03:57:43;3.60;99.90
39503;DHT22;26970;49.900;10.774;2023-12-20T04:00:09;3.70;99.90
39503;DHT22;26970;49.900;10.774;2023-12-20T04:02:38;3.70;99.90
39503;DHT22;26970;49.900;10.774;2023-12-20T04:05:04;3.80;99.90
39503;DHT22;26970;49.900;10.774;2023-12-20T04:07:30;3.60;99.90
39503;DHT22;26970;49.900;10.774;2023-12-20T04:09:56;3.60;99.90
39503;DHT22;26970;49.900;10.774;2023-12-20T04:12:24;3.60;99.90
39503;DHT22;26970;49.900;10.774;2023-12-20T04:14:50;3.60;99.90
39503;DHT22;26970;49.900;10.774;2023-12-20T04:17:16;3.70;99.90
39503;DHT22;26970;49.900;10.774;2023-12-20T04:19:42;3.60;99.90
39503;DHT22;26970;49.900;10.774;2023-12-20T04:22:08;3.70;99.90
39503;DHT22;26970;49.900;10.774;2023-12-20T04:24:33;3.70;99.90
39503;DHT22;26970;49.900;10.774;2023-12-20T04:26:59;3.70;99.90
39503;DHT22;26970;49.900;10.774;2023-12-20T04:29:24;3.70;99.90
39503;DHT22;26970;49.900;10.774;2023-12-20T04:31:50;3.70;99.90
39503;DHT22;26970;49.900;10.774;2023-12-20T04:34:17;3.70;99.90
39503;DHT22;26970;49.900;10.774;2023-12-20T04:36:43;3.80;99.90
39503;DHT22;26970;49.900;10.774;2023-12-20T04:39:09;3.60;99.90
39503;DHT22;26970;49.900;10.774;2023-12-20T04:41:35;3.70;99.90
39503;DHT22;26970;49.900;10.774;2023-12-20T04:44:00;3.70;99.90
39503;DHT22;26970;49.900;10.774;2023-12-20T04:46:26;3.70;99.90
39503;DHT22;26970;49.900;10.774;2023-12-20T04:48:51;3.70;99.90
39503;DHT22;26970;49.900;10.774;2023-12-20T04:51:17;3.70;99.90
39503;DHT22;26970;49.900;10.774;2023-12-20T04:53:43;3.70;99.90
39503;DHT22;26970;49.900;10.774;2023-12-20T04:56:08;3.70;99.90
39503;DHT22;26970;49.900;10.774;2023-12-20T04:58:34;3.70;99.90
39503;DHT22;26970;49.900;10.774;2023-12-20T05:01:00;3.70;99.90
39503;DHT22;26970;49.900;10.774;2023-12-20T05:03:25;3.70;99.90
39503;DHT22;26970;49.900;10.774;2023-12-20T05:05:51;3.70;99.90
39503;DHT22;26970;49.900;10.774;2023-12-20T05:08:16;3.80;99.90
39503;DHT22;26970;49.900;10.774;2023-12-20T05:10:42;3.80;99.90
39503;DHT22;26970;49.900;10.774;2023-12-20T05:13:07;3.80;99.90
39503;DHT22;26970;49.900;10.774;2023-12-20T05:15:33;3.70;99.90
39503;DHT22;26970;49.900;10.774;2023-12-20T05:17:59;3.80;99.90
39503;DHT22;26970;49.900;10.774;2023-12-20T05:20:24;3.80;99.90
39503;DHT22;26970;49.900;10.774;2023-12-20T05:22:50;3.80;99.90
39503;DHT22;26970;49.900;10.774;2023-12-20T05:25:15;3.80;99.90
39503;DHT22;26970;49.900;10.774;2023-12-20T05:27:41;3.80;99.90
39503;DHT22;26970;49.900;10.774;2023-12-20T05:30:07;3.80;99.90
39503;DHT22;26970;49.900;10.774;2023-12-20T05:32:33;3.80;99.90
39503;DHT22;26970;49.900;10.774;2023-12-20T05:34:58;3.80;99.90
39503;DHT22;26970;49.900;10.774;2023-12-20T05:37:24;3.80;99.90
39503;DHT22;26970;49.900;10.774;2023-12-20T05:39:49;3.90;99.90
39503;DHT22;26970;49.900;10.774;2023-12-20T05:42:15;3.70;99.90
39503;DHT22;26970;49.900;10.774;2023-12-20T05:44:40;3.80;99.90
39503;DHT22;26970;49.900;10.774;2023-12-20T05:47:06;3.90;99.90
39503;DHT22;26970;49.900;10.774;2023-12-20T05:49:32;3.80;99.90
39503;DHT22;26970;49.900;10.774;2023-12-20T05:51:57;3.80;99.90
39503;DHT22;26970;49.900;10.774;2023-12-20T05:54:23;3.80;99.90
39503;DHT22;26970;49.900;10.774;2023-12-20T05:56:48;3.80;99.90
39503;DHT22;26970;49.900;10.774;2023-12-20T05:59:14;3.80;99.90
39503;DHT22;26970;49.900;10.774;2023-12-20T06:01:39;3.80;99.90
39503;DHT22;26970;49.900;10.774;2023-12-20T06:04:05;3.90;99.90
39503;DHT22;26970;49.900;10.774;2023-12-20T06:06:31;3.90;99.90
39503;DHT22;26970;49.900;10.774;2023-12-20T06:08:56;3.90;99.90
39503;DHT22;26970;49.900;10.774;2023-12-20T06:11:22;3.90;99.90
39503;DHT22;26970;49.900;10.774;2023-12-20T06:13:47;3.90;99.90
39503;DHT22;26970;49.900;10.774;2023-12-20T06:16:14;3.90;99.90
39503;DHT22;26970;49.900;10.774;2023-12-20T06:18:40;3.90;99.90
39503;DHT22;26970;49.900;10.774;2023-12-20T06:21:05;4.00;99.90
39503;DHT22;26970;49.900;10.774;2023-12-20T06:23:32;4.00;99.90
39503;DHT22;26970;49.900;10.774;2023-12-20T06:25:58;4.00;99.90
39503;DHT22;26970;49.900;10.774;2023-12-20T06:28:23;4.00;99.90
39503;DHT22;26970;49.900;10.774;2023-12-20T06:30:49;4.00;99.90
39503;DHT22;26970;49.900;10.774;2023-12-20T06:33:15;4.00;99.90
39503;DHT22;26970;49.900;10.774;2023-12-20T06:35:40;4.00;99.90
39503;DHT22;26970;49.900;10.774;2023-12-20T06:38:06;4.10;99.90
39503;DHT22;26970;49.900;10.774;2023-12-20T06:40:32;4.00;99.90
39503;DHT22;26970;49.900;10.774;2023-12-20T06:42:57;4.00;99.90
39503;DHT22;26970;49.900;10.774;2023-12-20T06:45:23;4.00;99.90
39503;DHT22;26970;49.900;10.774;2023-12-20T06:47:48;4.00;99.90
39503;DHT22;26970;49.900;10.774;2023-12-20T06:50:14;4.00;99.90
39503;DHT22;26970;49.900;10.774;2023-12-20T06:52:39;3.90;99.90
39503;DHT22;26970;49.900;10.774;2023-12-20T06:55:05;3.90;99.90
39503;DHT22;26970;49.900;10.774;2023-12-20T06:57:31;3.90;99.90
39503;DHT22;26970;49.900;10.774;2023-12-20T06:59:56;3.90;99.90
39503;DHT22;26970;49.900;10.774;2023-12-20T07:02:23;4.00;99.90
39503;DHT22;26970;49.900;10.774;2023-12-20T07:04:48;4.00;99.90
39503;DHT22;26970;49.900;10.774;2023-12-20T07:07:14;4.00;99.90
39503;DHT22;26970;49.900;10.774;2023-12-20T07:09:39;4.00;99.90
39503;DHT22;26970;49.900;10.774;2023-12-20T07:12:08;4.00;99.90
39503;DHT22;26970;49.900;10.774;2023-12-20T07:14:33;4.10;99.90
39503;DHT22;26970;49.900;10.774;2023-12-20T07:16:59;4.00;99.90
39503;DHT22;26970;49.900;10.774;2023-12-20T07:19:24;4.00;99.90
39503;DHT22;26970;49.900;10.774;2023-12-20T07:21:50;4.10;99.90
39503;DHT22;26970;49.900;10.774;2023-12-20T07:24:15;4.00;99.90
39503;DHT22;26970;49.900;10.774;2023-12-20T07:26:41;4.00;99.90
39503;DHT22;26970;49.900;10.774;2023-12-20T07:29:06;4.00;99.90
39503;DHT22;26970;49.900;10.774;2023-12-20T07:31:32;4.10;99.90
39503;DHT22;26970;49.900;10.774;2023-12-20T07:33:58;4.10;99.90
39503;DHT22;26970;49.900;10.774;2023-12-20T07:36:23;4.10;99.90
39503;DHT22;26970;49.900;10.774;2023-12-20T07:38:49;4.10;99.90
39503;DHT22;26970;49.900;10.774;2023-12-20T07:41:14;4.10;99.90
39503;DHT22;26970;49.900;10.774;2023-12-20T07:43:41;4.10;99.90
39503;DHT22;26970;49.900;10.774;2023-12-20T07:46:08;4.10;99.90
39503;DHT22;26970;49.900;10.774;2023-12-20T07:48:35;4.10;99.90
39503;DHT22;26970;49.900;10.774;2023-12-20T07:51:01;4.10;99.90
39503;DHT22;26970;49.900;10.774;2023-12-20T07:53:27;4.10;99.90
39503;DHT22;26970;49.900;10.774;2023-12-20T07:55:52;4.10;99.90
39503;DHT22;26970;49.900;10.774;2023-12-20T07:58:18;4.10;99.90
39503;DHT22;26970;49.900;10.774;2023-12-20T08:00:44;4.10;99.90
39503;DHT22;26970;49.900;10.774;2023-12-20T08:03:09;4.00;99.90
39503;DHT22;26970;49.900;10.774;2023-12-20T08:05:36;4.00;99.90
39503;DHT22;26970;49.900;10.774;2023-12-20T08:08:01;4.00;99.90
39503;DHT22;26970;49.900;10.774;2023-12-20T08:10:27;3.90;99.90
39503;DHT22;26970;49.900;10.774;2023-12-20T08:12:55;4.00;99.90
39503;DHT22;26970;49.900;10.774;2023-12-20T08:15:20;3.90;99.90
39503;DHT22;26970;49.900;10.774;2023-12-20T08:17:46;3.90;99.90
39503;DHT22;26970;49.900;10.774;2023-12-20T08:20:11;3.90;99.90
39503;DHT22;26970;49.900;10.774;2023-12-20T08:22:37;3.90;99.90
39503;DHT22;26970;49.900;10.774;2023-12-20T08:25:02;4.00;99.90
39503;DHT22;26970;49.900;10.774;2023-12-20T08:27:28;4.00;99.90
39503;DHT22;26970;49.900;10.774;2023-12-20T08:29:54;4.00;99.90
39503;DHT22;26970;49.900;10.774;2023-12-20T08:32:19;4.00;99.90
39503;DHT22;26970;49.900;10.774;2023-12-20T08:34:45;4.10;99.90
39503;DHT22;26970;49.900;10.774;2023-12-20T08:37:10;4.10;99.90
39503;DHT22;26970;49.900;10.774;2023-12-20T08:39:36;4.20;99.90
39503;DHT22;26970;49.900;10.774;2023-12-20T08:42:02;4.20;99.90
39503;DHT22;26970;49.900;10.774;2023-12-20T08:44:27;4.20;99.90
39503;DHT22;26970;49.900;10.774;2023-12-20T08:46:53;4.30;99.90
39503;DHT22;26970;49.900;10.774;2023-12-20T08:49:18;4.50;99.90
39503;DHT22;26970;49.900;10.774;2023-12-20T08:51:44;4.50;99.90
39503;DHT22;26970;49.900;10.774;2023-12-20T08:54:09;4.50;99.90
39503;DHT22;26970;49.900;10.774;2023-12-20T08:56:35;4.50;99.90
39503;DHT22;26970;49.900;10.774;2023-12-20T08:59:01;4.60;99.90
39503;DHT22;26970;49.900;10.774;2023-12-20T09:01:26;4.70;99.90
39503;DHT22;26970;49.900;10.774;2023-12-20T09:03:52;4.80;99.90
39503;DHT22;26970;49.900;10.774;2023-12-20T09:06:17;4.80;99.90
39503;DHT22;26970;49.900;10.774;2023-12-20T09:08:43;4.90;99.90
39503;DHT22;26970;49.900;10.774;2023-12-20T09:11:08;4.80;99.90
39503;DHT22;26970;49.900;10.774;2023-12-20T09:13:34;4.80;99.90
39503;DHT22;26970;49.900;10.774;2023-12-20T09:16:00;4.80;99.90
39503;DHT22;26970;49.900;10.774;2023-12-20T09:18:25;4.80;99.90
39503;DHT22;26970;49.900;10.774;2023-12-20T09:20:51;4.70;99.90
39503;DHT22;26970;49.900;10.774;2023-12-20T09:23:16;4.70;99.90
39503;DHT22;26970;49.900;10.774;2023-12-20T09:25:43;4.80;99.90
39503;DHT22;26970;49.900;10.774;2023-12-20T09:28:09;4.90;99.90
39503;DHT22;26970;49.900;10.774;2023-12-20T09:30:35;5.00;99.90
39503;DHT22;26970;49.900;10.774;2023-12-20T09:33:03;5.00;99.90
39503;DHT22;26970;49.900;10.774;2023-12-20T09:35:29;4.90;99.90
39503;DHT22;26970;49.900;10.774;2023-12-20T09:37:55;4.90;99.90
39503;DHT22;26970;49.900;10.774;2023-12-20T09:40:20;4.90;99.90
39503;DHT22;26970;49.900;10.774;2023-12-20T09:42:52;4.70;99.90
39503;DHT22;26970;49.900;10.774;2023-12-20T09:45:21;4.70;99.90
39503;DHT22;26970;49.900;10.774;2023-12-20T09:47:48;4.70;99.90
39503;DHT22;26970;49.900;10.774;2023-12-20T09:50:14;4.70;99.90
39503;DHT22;26970;49.900;10.774;2023-12-20T09:52:40;4.70;99.90
39503;DHT22;26970;49.900;10.774;2023-12-20T09:55:07;4.70;99.90
39503;DHT22;26970;49.900;10.774;2023-12-20T09:57:33;4.60;99.90
39503;DHT22;26970;49.900;10.774;2023-12-20T09:59:59;4.70;99.90
39503;DHT22;26970;49.900;10.774;2023-12-20T10:02:25;4.60;99.90
39503;DHT22;26970;49.900;10.774;2023-12-20T10:04:55;4.70;99.90
39503;DHT22;26970;49.900;10.774;2023-12-20T10:07:21;4.70;99.90
39503;DHT22;26970;49.900;10.774;2023-12-20T10:09:48;4.80;99.90
39503;DHT22;26970;49.900;10.774;2023-12-20T10:12:14;4.80;99.90
39503;DHT22;26970;49.900;10.774;2023-12-20T10:14:39;4.90;99.90
39503;DHT22;26970;49.900;10.774;2023-12-20T10:17:06;4.90;99.90
39503;DHT22;26970;49.900;10.774;2023-12-20T10:19:34;5.00;99.90
39503;DHT22;26970;49.900;10.774;2023-12-20T10:22:00;5.00;99.90
39503;DHT22;26970;49.900;10.774;2023-12-20T10:24:28;4.90;99.90
39503;DHT22;26970;49.900;10.774;2023-12-20T10:27:05;4.90;99.90
39503;DHT22;26970;49.900;10.774;2023-12-20T10:29:37;4.90;99.90
39503;DHT22;26970;49.900;10.774;2023-12-20T10:32:24;5.00;99.90
39503;DHT22;26970;49.900;10.774;2023-12-20T10:34:50;5.00;99.90
39503;DHT22;26970;49.900;10.774;2023-12-20T10:37:16;5.00;99.90
39503;DHT22;26970;49.900;10.774;2023-12-20T10:39:50;5.00;99.90
39503;DHT22;26970;49.900;10.774;2023-12-20T10:42:21;5.00;99.90
39503;DHT22;26970;49.900;10.774;2023-12-20T10:44:47;5.00;99.90
39503;DHT22;26970;49.900;10.774;2023-12-20T10:47:13;5.00;99.90
39503;DHT22;26970;49.900;10.774;2023-12-20T10:49:39;4.90;99.90
39503;DHT22;26970;49.900;10.774;2023-12-20T10:52:06;4.90;99.90
39503;DHT22;26970;49.900;10.774;2023-12-20T10:54:32;4.90;99.90
39503;DHT22;26970;49.900;10.774;2023-12-20T10:56:58;4.90;99.90
39503;DHT22;26970;49.900;10.774;2023-12-20T10:59:26;5.00;99.90
39503;DHT22;26970;49.900;10.774;2023-12-20T11:01:54;4.90;99.90
39503;DHT22;26970;49.900;10.774;2023-12-20T11:07:29;5.00;99.90
39503;DHT22;26970;49.900;10.774;2023-12-20T11:10:13;5.00;99.90
39503;DHT22;26970;49.900;10.774;2023-12-20T11:12:53;5.10;99.90
39503;DHT22;26970;49.900;10.774;2023-12-20T11:15:20;5.10;99.90
39503;DHT22;26970;49.900;10.774;2023-12-20T11:17:47;5.10;99.90
39503;DHT22;26970;49.900;10.774;2023-12-20T11:20:23;5.10;99.90
39503;DHT22;26970;49.900;10.774;2023-12-20T11:22:55;5.10;99.90
39503;DHT22;26970;49.900;10.774;2023-12-20T11:25:21;5.10;99.90
39503;DHT22;26970;49.900;10.774;2023-12-20T11:28:07;5.10;99.90
39503;DHT22;26970;49.900;10.774;2023-12-20T11:30:46;5.20;99.90
39503;DHT22;26970;49.900;10.774;2023-12-20T11:33:15;5.20;99.90
39503;DHT22;26970;49.900;10.774;2023-12-20T11:35:42;5.10;99.90
39503;DHT22;26970;49.900;10.774;2023-12-20T11:38:09;5.00;99.90
39503;DHT22;26970;49.900;10.774;2023-12-20T11:40:36;5.00;99.90
39503;DHT22;26970;49.900;10.774;2023-12-20T11:43:02;4.90;99.90
39503;DHT22;26970;49.900;10.774;2023-12-20T11:45:28;4.90;99.90
39503;DHT22;26970;49.900;10.774;2023-12-20T11:47:55;5.00;99.90
39503;DHT22;26970;49.900;10.774;2023-12-20T11:50:23;5.00;99.90
39503;DHT22;26970;49.900;10.774;2023-12-20T11:52:50;5.00;99.90
39503;DHT22;26970;49.900;10.774;2023-12-20T11:55:17;5.00;99.90
39503;DHT22;26970;49.900;10.774;2023-12-20T11:57:43;5.00;99.90
39503;DHT22;26970;49.900;10.774;2023-12-20T12:00:09;4.90;99.90
39503;DHT22;26970;49.900;10.774;2023-12-20T12:02:35;5.00;99.90
39503;DHT22;26970;49.900;10.774;2023-12-20T12:05:01;5.00;99.90
39503;DHT22;26970;49.900;10.774;2023-12-20T12:07:27;5.00;99.90
39503;DHT22;26970;49.900;10.774;2023-12-20T12:09:53;5.00;99.90
39503;DHT22;26970;49.900;10.774;2023-12-20T12:12:19;5.10;99.90
39503;DHT22;26970;49.900;10.774;2023-12-20T12:14:45;5.10;99.90
39503;DHT22;26970;49.900;10.774;2023-12-20T12:17:11;5.00;99.90
39503;DHT22;26970;49.900;10.774;2023-12-20T12:19:38;5.10;99.90
39503;DHT22;26970;49.900;10.774;2023-12-20T12:22:12;5.20;99.90
39503;DHT22;26970;49.900;10.774;2023-12-20T12:24:46;5.20;99.90
39503;DHT22;26970;49.900;10.774;2023-12-20T12:27:15;5.10;99.90
39503;DHT22;26970;49.900;10.774;2023-12-20T12:29:43;5.10;99.90
39503;DHT22;26970;49.900;10.774;2023-12-20T12:32:25;5.00;99.90
39503;DHT22;26970;49.900;10.774;2023-12-20T12:34:50;5.00;99.90
39503;DHT22;26970;49.900;10.774;2023-12-20T12:37:16;4.90;99.90
39503;DHT22;26970;49.900;10.774;2023-12-20T12:39:42;4.90;99.90
39503;DHT22;26970;49.900;10.774;2023-12-20T12:42:08;4.90;99.90
39503;DHT22;26970;49.900;10.774;2023-12-20T12:44:33;4.90;99.90
39503;DHT22;26970;49.900;10.774;2023-12-20T12:46:59;4.90;99.90
39503;DHT22;26970;49.900;10.774;2023-12-20T12:49:24;5.00;99.90
39503;DHT22;26970;49.900;10.774;2023-12-20T12:51:51;5.00;99.90
39503;DHT22;26970;49.900;10.774;2023-12-20T12:54:16;5.00;99.90
39503;DHT22;26970;49.900;10.774;2023-12-20T12:56:43;5.00;99.90
39503;DHT22;26970;49.900;10.774;2023-12-20T12:59:09;5.00;99.90
39503;DHT22;26970;49.900;10.774;2023-12-20T13:01:35;5.00;99.90
39503;DHT22;26970;49.900;10.774;2023-12-20T13:04:00;4.90;99.90
39503;DHT22;26970;49.900;10.774;2023-12-20T13:06:29;4.90;99.90
39503;DHT22;26970;49.900;10.774;2023-12-20T13:08:54;4.90;99.90
39503;DHT22;26970;49.900;10.774;2023-12-20T13:11:20;4.90;99.90
39503;DHT22;26970;49.900;10.774;2023-12-20T13:13:46;4.90;99.90
39503;DHT22;26970;49.900;10.774;2023-12-20T13:16:12;4.90;99.90
39503;DHT22;26970;49.900;10.774;2023-12-20T13:18:38;5.00;99.90
39503;DHT22;26970;49.900;10.774;2023-12-20T13:21:07;4.90;99.90
39503;DHT22;26970;49.900;10.774;2023-12-20T13:23:33;4.90;99.90
39503;DHT22;26970;49.900;10.774;2023-12-20T13:25:58;4.90;99.90
39503;DHT22;26970;49.900;10.774;2023-12-20T13:28:24;4.90;99.90
39503;DHT22;26970;49.900;10.774;2023-12-20T13:30:50;4.90;99.90
39503;DHT22;26970;49.900;10.774;2023-12-20T13:33:15;5.00;99.90
39503;DHT22;26970;49.900;10.774;2023-12-20T13:35:41;4.90;99.90
39503;DHT22;26970;49.900;10.774;2023-12-20T13:38:07;5.00;99.90
39503;DHT22;26970;49.900;10.774;2023-12-20T13:40:33;5.00;99.90
39503;DHT22;26970;49.900;10.774;2023-12-20T13:42:58;5.00;99.90
39503;DHT22;26970;49.900;10.774;2023-12-20T13:45:24;5.00;99.90
39503;DHT22;26970;49.900;10.774;2023-12-20T13:47:50;5.00;99.90
39503;DHT22;26970;49.900;10.774;2023-12-20T13:50:16;4.90;99.90
39503;DHT22;26970;49.900;10.774;2023-12-20T13:52:42;5.00;99.90
39503;DHT22;26970;49.900;10.774;2023-12-20T13:55:08;5.00;99.90
39503;DHT22;26970;49.900;10.774;2023-12-20T13:57:34;5.00;99.90
39503;DHT22;26970;49.900;10.774;2023-12-20T14:00:03;4.90;99.90
39503;DHT22;26970;49.900;10.774;2023-12-20T14:02:30;4.90;99.90
39503;DHT22;26970;49.900;10.774;2023-12-20T14:04:55;4.90;99.90
39503;DHT22;26970;49.900;10.774;2023-12-20T14:07:21;4.90;99.90
39503;DHT22;26970;49.900;10.774;2023-12-20T14:09:47;4.90;99.90
39503;DHT22;26970;49.900;10.774;2023-12-20T14:12:13;4.90;99.90
39503;DHT22;26970;49.900;10.774;2023-12-20T14:14:39;4.90;99.90
39503;DHT22;26970;49.900;10.774;2023-12-20T14:17:04;4.90;99.90
39503;DHT22;26970;49.900;10.774;2023-12-20T14:19:32;4.90;99.90
39503;DHT22;26970;49.900;10.774;2023-12-20T14:21:57;4.90;99.90
39503;DHT22;26970;49.900;10.774;2023-12-20T14:24:27;4.90;99.90
39503;DHT22;26970;49.900;10.774;2023-12-20T14:26:52;4.90;99.90
39503;DHT22;26970;49.900;10.774;2023-12-20T14:29:18;4.80;99.90
39503;DHT22;26970;49.900;10.774;2023-12-20T14:31:44;4.80;99.90
39503;DHT22;26970;49.900;10.774;2023-12-20T14:34:09;4.80;99.90
39503;DHT22;26970;49.900;10.774;2023-12-20T14:36:35;4.80;99.90
39503;DHT22;26970;49.900;10.774;2023-12-20T14:39:00;4.70;99.90
39503;DHT22;26970;49.900;10.774;2023-12-20T14:41:28;4.70;99.90
39503;DHT22;26970;49.900;10.774;2023-12-20T14:43:53;4.70;99.90
39503;DHT22;26970;49.900;10.774;2023-12-20T14:46:19;4.70;99.90
39503;DHT22;26970;49.900;10.774;2023-12-20T14:48:45;4.70;99.90
39503;DHT22;26970;49.900;10.774;2023-12-20T14:51:10;4.70;99.90
39503;DHT22;26970;49.900;10.774;2023-12-20T14:53:37;4.70;99.90
39503;DHT22;26970;49.900;10.774;2023-12-20T14:56:04;4.70;99.90
39503;DHT22;26970;49.900;10.774;2023-12-20T14:58:29;4.70;99.90
39503;DHT22;26970;49.900;10.774;2023-12-20T15:00:55;4.70;99.90
39503;DHT22;26970;49.900;10.774;2023-12-20T15:03:21;4.70;99.90
39503;DHT22;26970;49.900;10.774;2023-12-20T15:05:47;4.70;99.90
39503;DHT22;26970;49.900;10.774;2023-12-20T15:08:13;4.60;99.90
39503;DHT22;26970;49.900;10.774;2023-12-20T15:10:39;4.60;99.90
39503;DHT22;26970;49.900;10.774;2023-12-20T15:13:04;4.60;99.90
39503;DHT22;26970;49.900;10.774;2023-12-20T15:15:31;4.50;99.90
39503;DHT22;26970;49.900;10.774;2023-12-20T15:17:59;4.50;99.90
39503;DHT22;26970;49.900;10.774;2023-12-20T15:20:25;4.50;99.90
39503;DHT22;26970;49.900;10.774;2023-12-20T15:22:50;4.50;99.90
39503;DHT22;26970;49.900;10.774;2023-12-20T15:25:16;4.50;99.90
39503;DHT22;26970;49.900;10.774;2023-12-20T15:27:48;4.50;99.90